createdAt,value
2022-10-25T00:04:40.087Z,17.63
2022-10-25T00:09:43.172Z,17.60
2022-10-25T00:14:46.310Z,17.63
2022-10-25T00:19:49.292Z,17.66
2022-10-25T00:24:52.894Z,17.66
2022-10-25T00:29:55.754Z,17.65
2022-10-25T00:34:58.607Z,17.66
2022-10-25T00:40:01.791Z,17.66
2022-10-25T00:45:28.629Z,17.67
2022-10-25T00:50:40.080Z,17.66
2022-10-25T00:55:47.051Z,17.57
2022-10-25T01:00:50.605Z,17.54
2022-10-25T01:05:54.118Z,17.56
2022-10-25T01:10:57.118Z,17.63
2022-10-25T01:16:12.562Z,17.69
2022-10-25T01:21:18.410Z,17.69
2022-10-25T01:26:40.129Z,17.66
2022-10-25T01:31:50.687Z,17.63
2022-10-25T01:37:08.086Z,17.60
2022-10-25T01:42:38.905Z,17.60
2022-10-25T01:47:50.270Z,17.62
2022-10-25T01:58:03.310Z,17.55
2022-10-25T02:03:38.006Z,17.59
2022-10-25T02:08:52.063Z,17.61
2022-10-25T02:14:13.564Z,17.57
2022-10-25T02:19:22.691Z,17.52
2022-10-25T02:24:28.734Z,17.52
2022-10-25T02:29:34.315Z,17.56
2022-10-25T02:34:37.267Z,17.56
2022-10-25T02:39:40.424Z,17.52
2022-10-25T02:44:43.331Z,17.44
2022-10-25T02:49:46.278Z,17.41
2022-10-25T02:54:49.182Z,17.39
2022-10-25T02:59:52.098Z,17.34
2022-10-25T03:04:55.132Z,17.32
2022-10-25T03:09:58.014Z,17.28
2022-10-25T03:15:00.924Z,17.24
2022-10-25T03:20:04.493Z,17.27
2022-10-25T03:30:13.805Z,17.19
2022-10-25T03:35:16.732Z,17.16
2022-10-25T03:40:20.610Z,17.14
2022-10-25T03:45:23.850Z,17.16
2022-10-25T03:50:26.936Z,17.16
2022-10-25T03:55:29.785Z,17.13
2022-10-25T04:00:32.795Z,17.08
2022-10-25T04:05:36.098Z,17.07
2022-10-25T04:10:39.061Z,17.08
2022-10-25T04:15:42.082Z,17.09
2022-10-25T04:20:45.094Z,17.06
2022-10-25T04:25:48.227Z,17.04
2022-10-25T04:30:51.197Z,17.06
2022-10-25T04:35:57.730Z,17.08
2022-10-25T04:41:01.263Z,17.05
2022-10-25T04:46:04.498Z,17.02
2022-10-25T04:51:08.769Z,16.99
2022-10-25T04:56:14.522Z,17.01
2022-10-25T05:01:18.798Z,17.02
2022-10-25T05:06:25.540Z,16.97
2022-10-25T05:11:28.488Z,16.92
2022-10-25T05:16:34.709Z,16.89
2022-10-25T05:21:38.210Z,16.82
2022-10-25T05:26:41.163Z,16.81
2022-10-25T05:31:44.133Z,16.82
2022-10-25T05:36:47.024Z,16.82
2022-10-25T05:41:50.186Z,16.76
2022-10-25T05:46:53.413Z,16.72
2022-10-25T05:51:56.306Z,16.73
2022-10-25T05:56:59.187Z,16.75
2022-10-25T06:02:02.523Z,16.76
2022-10-25T06:07:07.518Z,16.77
2022-10-25T06:12:10.474Z,16.74
2022-10-25T06:17:14.007Z,16.70
2022-10-25T06:22:17.017Z,16.73
2022-10-25T06:27:19.827Z,16.77
2022-10-25T06:32:22.724Z,16.80
2022-10-25T06:37:25.660Z,16.76
2022-10-25T06:42:28.710Z,16.70
2022-10-25T06:47:31.799Z,16.72
2022-10-25T06:52:34.717Z,16.73
2022-10-25T06:57:37.629Z,16.71
2022-10-25T07:02:40.516Z,16.67
2022-10-25T07:07:43.578Z,16.66
2022-10-25T07:12:46.608Z,16.70
2022-10-25T07:17:49.824Z,16.76
2022-10-25T07:22:56.551Z,16.85
2022-10-25T07:28:02.365Z,16.92
2022-10-25T07:33:05.244Z,16.96
2022-10-25T07:38:08.116Z,17.04
2022-10-25T07:43:11.182Z,17.10
2022-10-25T07:48:14.065Z,17.16
2022-10-25T07:53:17.148Z,17.25
2022-10-25T07:58:20.591Z,17.30
2022-10-25T08:03:23.482Z,17.33
2022-10-25T08:08:27.452Z,17.43
2022-10-25T08:13:30.355Z,17.52
2022-10-25T08:18:34.244Z,17.59
2022-10-25T08:23:38.165Z,17.67
2022-10-25T08:28:41.233Z,17.72
2022-10-25T08:33:44.101Z,17.74
2022-10-25T08:38:47.400Z,17.84
2022-10-25T08:44:11.464Z,17.97
2022-10-25T08:49:58.971Z,18.01
2022-10-25T08:55:06.035Z,18.08
2022-10-25T09:00:17.550Z,18.17
2022-10-25T09:05:43.232Z,18.26
2022-10-25T09:10:55.698Z,18.33
2022-10-25T09:16:19.708Z,18.40
2022-10-25T09:21:23.110Z,18.47
2022-10-25T09:26:39.069Z,18.52
2022-10-25T09:31:48.652Z,18.58
2022-10-25T09:36:59.233Z,18.62
2022-10-25T09:42:03.466Z,18.55
2022-10-25T09:47:17.597Z,18.38
2022-10-25T09:52:44.698Z,18.26
2022-10-25T09:57:47.836Z,18.18
2022-10-25T10:02:51.052Z,18.05
2022-10-25T10:07:54.863Z,17.93
2022-10-25T10:13:12.952Z,17.82
2022-10-25T10:18:23.162Z,17.67
2022-10-25T10:23:32.755Z,17.57
2022-10-25T10:28:36.305Z,17.47
2022-10-25T10:33:39.613Z,17.48
2022-10-25T10:38:42.487Z,17.51
2022-10-25T10:43:45.423Z,17.48
2022-10-25T10:48:55.080Z,17.47
2022-10-25T10:53:58.601Z,17.49
2022-10-25T10:59:01.579Z,17.52
2022-10-25T11:04:04.691Z,17.61
2022-10-25T11:09:12.908Z,17.67
2022-10-25T11:14:17.961Z,17.70
2022-10-25T11:19:20.839Z,17.70
2022-10-25T11:25:00.893Z,17.70
2022-10-25T11:30:16.152Z,17.80
2022-10-25T11:35:38.191Z,17.93
2022-10-25T11:40:46.639Z,18.00
2022-10-25T11:45:58.671Z,18.10
2022-10-25T11:51:41.312Z,18.20
2022-10-25T11:57:14.963Z,18.34
2022-10-25T12:02:45.687Z,18.44
2022-10-25T12:07:54.766Z,18.57
2022-10-25T12:13:16.771Z,18.63
2022-10-25T12:18:26.182Z,18.71
2022-10-25T12:23:36.914Z,18.73
2022-10-25T12:28:49.871Z,18.75
2022-10-25T12:34:02.414Z,18.82
2022-10-25T12:39:18.348Z,18.95
2022-10-25T12:44:58.918Z,19.07
2022-10-25T12:50:30.031Z,19.17
2022-10-25T12:56:06.722Z,19.24
2022-10-25T13:01:38.262Z,19.24
2022-10-25T13:06:47.124Z,19.17
2022-10-25T13:11:59.612Z,19.05
2022-10-25T13:17:18.330Z,18.96
2022-10-25T13:22:46.790Z,18.96
2022-10-25T13:28:11.209Z,18.92
2022-10-25T13:33:22.685Z,18.93
2022-10-25T13:38:34.191Z,19.01
2022-10-25T13:43:56.868Z,19.11
2022-10-25T13:49:01.558Z,19.12
2022-10-25T13:54:08.426Z,19.06
2022-10-25T13:59:58.972Z,19.00
2022-10-25T14:05:02.155Z,18.98
2022-10-25T14:10:13.692Z,18.91
2022-10-25T14:15:39.804Z,18.90
2022-10-25T14:20:47.183Z,18.94
2022-10-25T14:26:01.347Z,18.99
2022-10-25T14:31:11.985Z,19.03
2022-10-25T14:36:29.883Z,19.06
2022-10-25T14:41:35.498Z,19.06
2022-10-25T14:46:44.782Z,19.06
2022-10-25T14:51:50.281Z,19.12
2022-10-25T14:57:02.824Z,19.04
2022-10-25T15:02:28.617Z,18.95
2022-10-25T15:07:31.393Z,18.82
2022-10-25T15:12:35.084Z,18.73
2022-10-25T15:17:38.295Z,18.70
2022-10-25T15:22:44.219Z,18.70
2022-10-25T15:27:48.039Z,18.67
2022-10-25T15:32:51.102Z,18.62
2022-10-25T15:37:55.895Z,18.58
2022-10-25T15:42:59.088Z,18.49
2022-10-25T15:48:14.598Z,18.41
2022-10-25T15:53:17.747Z,18.37
2022-10-25T15:58:20.704Z,18.38
2022-10-25T16:03:25.058Z,18.32
2022-10-25T16:08:28.184Z,18.32
2022-10-25T16:13:38.049Z,18.33
2022-10-25T16:18:41.005Z,18.31
2022-10-25T16:23:43.931Z,18.28
2022-10-25T16:28:46.898Z,18.21
2022-10-25T16:33:50.129Z,18.12
2022-10-25T16:38:53.111Z,18.07
2022-10-25T16:43:58.258Z,18.03
2022-10-25T16:49:02.239Z,18.03
2022-10-25T16:54:06.614Z,18.03
2022-10-25T16:59:09.557Z,18.04
2022-10-25T17:04:14.706Z,18.05
2022-10-25T17:09:18.313Z,18.02
2022-10-25T17:14:21.293Z,17.95
2022-10-25T17:19:25.981Z,17.86
2022-10-25T17:24:33.099Z,17.80
2022-10-25T17:29:36.098Z,17.71
2022-10-25T17:34:41.107Z,17.67
2022-10-25T17:39:44.553Z,17.68
2022-10-25T17:44:47.920Z,17.67
2022-10-25T17:49:51.163Z,17.65
2022-10-25T17:54:54.171Z,17.63
2022-10-25T17:59:58.193Z,17.59
2022-10-25T18:05:21.914Z,17.50
2022-10-25T18:10:25.316Z,17.40
2022-10-25T18:15:29.360Z,17.33
2022-10-25T18:20:32.464Z,17.25
2022-10-25T18:25:36.268Z,17.22
2022-10-25T18:30:39.216Z,17.20
2022-10-25T18:35:42.366Z,17.25
2022-10-25T18:40:45.461Z,17.25
2022-10-25T18:45:48.415Z,17.22
2022-10-25T18:50:51.379Z,17.17
2022-10-25T18:55:54.671Z,17.13
2022-10-25T19:00:58.382Z,17.08
2022-10-25T19:06:01.969Z,17.01
2022-10-25T19:11:07.375Z,16.92
2022-10-25T19:16:10.403Z,16.85
2022-10-25T19:21:17.138Z,16.76
2022-10-25T19:26:21.149Z,16.70
2022-10-25T19:31:24.385Z,16.68
2022-10-25T19:36:27.787Z,16.67
2022-10-25T19:41:30.769Z,16.66
2022-10-25T19:46:34.081Z,16.61
2022-10-25T19:51:37.064Z,16.60
2022-10-25T19:56:40.165Z,16.63
2022-10-25T20:01:46.103Z,16.59
2022-10-25T20:06:49.317Z,16.49
2022-10-25T20:11:52.441Z,16.42
2022-10-25T20:16:55.341Z,16.37
2022-10-25T20:21:58.353Z,16.34
2022-10-25T20:27:02.202Z,16.37
2022-10-25T20:32:05.404Z,16.42
2022-10-25T20:37:10.234Z,16.43
2022-10-25T20:42:13.076Z,16.46
2022-10-25T20:47:16.568Z,16.42
2022-10-25T20:52:19.498Z,16.36
2022-10-25T20:57:22.459Z,16.28
2022-10-25T21:02:25.837Z,16.23
2022-10-25T21:07:32.222Z,16.19
2022-10-25T21:12:35.422Z,16.16
2022-10-25T21:17:38.433Z,16.15
2022-10-25T21:22:42.588Z,16.14
2022-10-25T21:27:45.852Z,16.15
2022-10-25T21:32:49.387Z,16.16
2022-10-25T21:37:52.461Z,16.18
2022-10-25T21:42:57.952Z,16.12
2022-10-25T21:48:00.846Z,16.09
2022-10-25T21:53:03.796Z,16.07
2022-10-25T21:58:06.700Z,16.02
2022-10-25T22:03:09.782Z,15.94
2022-10-25T22:08:13.216Z,15.86
2022-10-25T22:13:16.089Z,15.78
2022-10-25T22:18:19.043Z,15.74
2022-10-25T22:23:22.694Z,15.71
2022-10-25T22:28:25.680Z,15.67
2022-10-25T22:33:29.962Z,15.66
2022-10-25T22:38:33.447Z,15.65
2022-10-25T22:43:37.151Z,15.56
2022-10-25T22:48:41.622Z,15.38
2022-10-25T22:53:44.734Z,15.30
2022-10-25T22:58:50.579Z,15.25
2022-10-25T23:03:56.163Z,15.27
2022-10-25T23:09:00.134Z,15.29
2022-10-25T23:14:05.290Z,15.28
2022-10-25T23:19:08.294Z,15.25
2022-10-25T23:24:11.391Z,15.18
2022-10-25T23:29:14.249Z,15.12
2022-10-25T23:34:17.181Z,15.07
2022-10-25T23:39:20.111Z,14.99
2022-10-25T23:44:24.432Z,14.93
2022-10-25T23:49:27.343Z,14.98
2022-10-25T23:54:30.716Z,15.03
2022-10-25T23:59:33.641Z,14.98
